createdAt,value
2023-03-04T00:01:36.018Z,7.34
2023-03-04T00:04:24.040Z,7.96
2023-03-04T00:07:16.836Z,7.92
2023-03-04T00:10:06.598Z,6.76
2023-03-04T00:12:54.989Z,6.20
2023-03-04T00:15:42.931Z,7.05
2023-03-04T00:18:30.803Z,7.87
2023-03-04T00:21:18.771Z,7.76
2023-03-04T00:24:07.482Z,6.68
2023-03-04T00:26:55.045Z,6.39
2023-03-04T00:29:43.199Z,7.27
2023-03-04T00:32:31.415Z,7.95
2023-03-04T00:35:19.777Z,7.89
2023-03-04T00:38:09.111Z,6.86
2023-03-04T00:40:57.876Z,6.35
2023-03-04T00:43:45.689Z,7.24
2023-03-04T00:46:33.905Z,7.91
2023-03-04T00:49:22.697Z,7.61
2023-03-04T00:52:10.667Z,6.55
2023-03-04T00:54:58.834Z,6.12
2023-03-04T00:57:46.951Z,7.00
2023-03-04T01:00:36.500Z,7.69
2023-03-04T01:03:26.978Z,7.75
2023-03-04T01:06:15.043Z,6.69
2023-03-04T01:09:03.476Z,6.18
2023-03-04T01:11:51.666Z,6.95
2023-03-04T01:14:40.135Z,7.66
2023-03-04T01:17:28.422Z,7.39
2023-03-04T01:20:17.620Z,6.32
2023-03-04T01:23:05.674Z,6.24
2023-03-04T01:25:53.991Z,7.03
2023-03-04T01:28:41.985Z,7.56
2023-03-04T01:31:30.477Z,7.60
2023-03-04T01:34:18.480Z,6.69
2023-03-04T01:37:06.705Z,6.20
2023-03-04T01:39:54.924Z,6.89
2023-03-04T01:42:45.345Z,7.66
2023-03-04T01:45:33.775Z,7.63
2023-03-04T01:48:42.454Z,6.50
2023-03-04T01:51:30.558Z,6.44
2023-03-04T01:54:20.216Z,7.39
2023-03-04T01:57:26.497Z,7.71
2023-03-04T02:00:33.930Z,6.65
2023-03-04T02:03:22.825Z,5.76
2023-03-04T02:06:10.611Z,6.36
2023-03-04T02:08:58.825Z,7.16
2023-03-04T02:11:49.506Z,7.43
2023-03-04T02:14:39.170Z,6.57
2023-03-04T02:17:28.821Z,5.70
2023-03-04T02:20:59.940Z,6.19
2023-03-04T02:24:18.271Z,7.15
2023-03-04T02:27:07.485Z,7.19
2023-03-04T02:29:55.923Z,6.19
2023-03-04T02:32:44.150Z,5.66
2023-03-04T02:35:33.074Z,6.49
2023-03-04T02:38:22.066Z,7.17
2023-03-04T02:41:16.613Z,7.10
2023-03-04T02:44:17.163Z,5.98
2023-03-04T02:47:09.635Z,5.43
2023-03-04T02:49:58.040Z,6.32
2023-03-04T02:52:46.186Z,7.13
2023-03-04T02:55:34.289Z,7.62
2023-03-04T02:58:22.399Z,7.54
2023-03-04T03:01:10.615Z,6.39
2023-03-04T03:03:58.877Z,5.43
2023-03-04T03:06:47.742Z,5.81
2023-03-04T03:09:36.935Z,6.71
2023-03-04T03:12:25.211Z,7.36
2023-03-04T03:15:14.079Z,7.72
2023-03-04T03:18:02.423Z,6.81
2023-03-04T03:20:50.659Z,5.67
2023-03-04T03:23:39.143Z,5.49
2023-03-04T03:26:28.020Z,6.37
2023-03-04T03:29:16.253Z,7.06
2023-03-04T03:32:04.272Z,7.48
2023-03-04T03:34:52.426Z,7.08
2023-03-04T03:37:40.661Z,5.91
2023-03-04T03:40:28.711Z,5.43
2023-03-04T03:43:16.580Z,6.30
2023-03-04T03:46:05.209Z,7.00
2023-03-04T03:48:53.607Z,7.40
2023-03-04T03:51:41.889Z,7.71
2023-03-04T03:54:30.386Z,7.83
2023-03-04T03:57:18.188Z,6.93
2023-03-04T04:00:08.815Z,5.67
2023-03-04T04:03:03.204Z,4.75
2023-03-04T04:05:51.481Z,4.43
2023-03-04T04:08:39.748Z,5.40
2023-03-04T04:11:28.193Z,6.29
2023-03-04T04:14:16.621Z,6.79
2023-03-04T04:17:04.951Z,7.34
2023-03-04T04:19:53.165Z,7.68
2023-03-04T04:22:41.181Z,7.86
2023-03-04T04:25:29.790Z,7.91
2023-03-04T04:28:17.629Z,6.71
2023-03-04T04:31:10.040Z,5.43
2023-03-04T04:33:57.896Z,4.71
2023-03-04T04:36:45.987Z,5.52
2023-03-04T04:39:34.414Z,6.42
2023-03-04T04:42:23.461Z,6.98
2023-03-04T04:45:12.047Z,6.98
2023-03-04T04:48:00.352Z,5.82
2023-03-04T04:50:56.267Z,4.79
2023-03-04T04:53:44.974Z,4.52
2023-03-04T04:56:34.483Z,5.50
2023-03-04T04:59:23.466Z,6.38
2023-03-04T05:02:11.768Z,6.93
2023-03-04T05:04:59.740Z,7.47
2023-03-04T05:07:47.886Z,7.84
2023-03-04T05:10:36.152Z,7.27
2023-03-04T05:13:24.275Z,6.04
2023-03-04T05:16:13.662Z,5.08
2023-03-04T05:19:02.092Z,4.43
2023-03-04T05:21:50.032Z,4.82
2023-03-04T05:24:38.064Z,6.05
2023-03-04T05:27:26.215Z,6.89
2023-03-04T05:30:14.623Z,7.34
2023-03-04T05:33:02.870Z,7.38
2023-03-04T05:35:51.686Z,6.32
2023-03-04T05:38:39.836Z,5.36
2023-03-04T05:41:27.973Z,4.69
2023-03-04T05:44:16.418Z,4.54
2023-03-04T05:47:04.212Z,5.63
2023-03-04T05:49:52.312Z,6.56
2023-03-04T05:52:40.467Z,7.17
2023-03-04T05:55:30.177Z,7.48
2023-03-04T05:58:19.909Z,6.53
2023-03-04T06:01:08.026Z,5.46
2023-03-04T06:03:56.679Z,4.77
2023-03-04T06:06:46.756Z,4.32
2023-03-04T06:09:34.821Z,5.05
2023-03-04T06:12:23.386Z,6.28
2023-03-04T06:15:13.211Z,7.09
2023-03-04T06:18:01.287Z,7.54
2023-03-04T06:20:49.585Z,6.88
2023-03-04T06:23:37.955Z,5.87
2023-03-04T06:26:26.112Z,5.12
2023-03-04T06:29:17.269Z,4.85
2023-03-04T06:32:06.121Z,5.94
2023-03-04T06:34:54.185Z,7.02
2023-03-04T06:37:42.926Z,7.43
2023-03-04T06:40:31.014Z,6.57
2023-03-04T06:43:20.290Z,5.64
2023-03-04T06:46:10.061Z,5.01
2023-03-04T06:48:58.361Z,5.01
2023-03-04T06:51:46.438Z,6.23
2023-03-04T06:54:34.438Z,6.85
2023-03-04T06:57:22.454Z,6.16
2023-03-04T07:00:12.076Z,5.39
2023-03-04T07:03:00.370Z,4.84
2023-03-04T07:05:48.398Z,4.56
2023-03-04T07:08:36.788Z,5.46
2023-03-04T07:11:25.527Z,6.73
2023-03-04T07:14:14.132Z,7.12
2023-03-04T07:17:02.253Z,6.27
2023-03-04T07:19:50.436Z,5.52
2023-03-04T07:22:38.950Z,5.03
2023-03-04T07:25:27.575Z,4.70
2023-03-04T07:28:15.487Z,4.47
2023-03-04T07:31:11.716Z,4.49
2023-03-04T07:34:06.859Z,5.79
2023-03-04T07:36:55.371Z,6.61
2023-03-04T07:39:43.415Z,6.02
2023-03-04T07:42:31.468Z,5.40
2023-03-04T07:45:24.766Z,5.00
2023-03-04T07:48:12.696Z,4.75
2023-03-04T07:51:22.656Z,4.56
2023-03-04T07:54:11.354Z,4.40
2023-03-04T07:56:59.326Z,4.26
2023-03-04T07:59:47.394Z,4.12
2023-03-04T08:02:35.427Z,4.01
2023-03-04T08:05:23.615Z,3.91
2023-03-04T08:08:11.990Z,3.82
2023-03-04T08:10:59.861Z,3.79
2023-03-04T08:13:48.390Z,3.78
2023-03-04T08:16:36.746Z,3.76
2023-03-04T08:19:26.008Z,3.76
2023-03-04T08:22:14.645Z,3.79
2023-03-04T08:25:02.795Z,3.81
2023-03-04T08:27:50.619Z,3.80
2023-03-04T08:30:40.975Z,3.80
2023-03-04T08:33:28.783Z,3.77
2023-03-04T08:36:17.404Z,3.75
2023-03-04T08:39:06.506Z,3.77
2023-03-04T08:41:54.180Z,3.79
2023-03-04T08:44:42.447Z,3.81
2023-03-04T08:47:30.764Z,3.83
2023-03-04T08:50:21.324Z,3.84
2023-03-04T08:53:10.558Z,3.81
2023-03-04T08:55:58.871Z,3.81
2023-03-04T08:58:47.300Z,3.81
2023-03-04T09:01:35.588Z,3.77
2023-03-04T09:04:24.679Z,3.74
2023-03-04T09:07:14.309Z,3.73
2023-03-04T09:10:02.269Z,3.73
2023-03-04T09:12:50.710Z,3.78
2023-03-04T09:15:45.053Z,3.80
2023-03-04T09:18:33.474Z,3.83
2023-03-04T09:21:21.793Z,3.85
2023-03-04T09:24:09.601Z,3.86
2023-03-04T09:26:57.786Z,3.88
2023-03-04T09:29:45.989Z,3.89
2023-03-04T09:32:34.183Z,3.91
2023-03-04T09:35:22.337Z,3.93
2023-03-04T09:38:10.564Z,3.91
2023-03-04T09:41:04.858Z,3.93
2023-03-04T09:43:54.720Z,3.93
2023-03-04T09:46:45.532Z,3.93
2023-03-04T09:49:37.176Z,4.03
2023-03-04T09:53:07.765Z,4.11
2023-03-04T09:55:56.254Z,4.22
2023-03-04T09:58:59.328Z,4.34
2023-03-04T10:01:56.721Z,4.55
2023-03-04T10:04:55.505Z,4.88
2023-03-04T10:07:50.223Z,5.12
2023-03-04T10:10:43.971Z,5.48
2023-03-04T10:13:41.597Z,5.98
2023-03-04T10:16:52.881Z,6.49
2023-03-04T10:19:59.200Z,7.36
2023-03-04T10:22:53.559Z,8.05
2023-03-04T10:25:46.855Z,8.29
2023-03-04T10:28:36.096Z,8.26
2023-03-04T10:31:39.315Z,8.28
2023-03-04T10:34:27.789Z,8.40
2023-03-04T10:37:16.023Z,9.15
2023-03-04T10:40:04.823Z,10.43
2023-03-04T10:42:54.452Z,11.22
2023-03-04T10:45:42.584Z,12.08
2023-03-04T10:48:32.609Z,13.35
2023-03-04T10:51:25.276Z,14.72
2023-03-04T10:54:54.022Z,15.69
2023-03-04T10:57:45.051Z,16.85
2023-03-04T11:00:36.923Z,17.82
2023-03-04T11:03:30.039Z,18.70
2023-03-04T11:06:23.509Z,19.34
2023-03-04T11:09:28.988Z,19.77
2023-03-04T11:12:21.921Z,19.83
2023-03-04T11:15:27.688Z,19.52
2023-03-04T11:18:17.208Z,18.81
2023-03-04T11:21:06.836Z,18.41
2023-03-04T11:24:02.907Z,18.32
2023-03-04T11:27:10.905Z,18.09
2023-03-04T11:30:29.896Z,17.80
2023-03-04T11:33:41.853Z,17.29
2023-03-04T11:37:03.836Z,17.64
2023-03-04T11:40:01.433Z,18.27
2023-03-04T11:43:37.807Z,18.64
2023-03-04T11:47:03.347Z,18.84
2023-03-04T11:50:36.819Z,18.41
2023-03-04T11:53:44.756Z,17.98
2023-03-04T11:57:27.452Z,17.59
2023-03-04T12:00:44.015Z,17.21
2023-03-04T12:03:46.316Z,16.58
2023-03-04T12:07:16.396Z,16.02
2023-03-04T12:10:25.282Z,14.78
2023-03-04T12:13:25.366Z,13.48
2023-03-04T12:16:51.844Z,12.79
2023-03-04T12:19:43.815Z,13.06
2023-03-04T12:22:57.148Z,13.39
2023-03-04T12:26:04.285Z,13.47
2023-03-04T12:29:18.317Z,13.34
2023-03-04T12:32:29.716Z,12.87
2023-03-04T12:35:52.776Z,11.82
2023-03-04T12:39:27.852Z,10.69
2023-03-04T12:42:49.637Z,9.45
2023-03-04T12:46:04.919Z,8.27
2023-03-04T12:49:14.703Z,7.30
2023-03-04T12:52:39.558Z,6.73
2023-03-04T12:55:40.288Z,6.03
2023-03-04T12:58:32.947Z,5.30
2023-03-04T13:01:29.985Z,4.68
2023-03-04T13:05:01.237Z,4.18
2023-03-04T13:08:26.072Z,3.69
2023-03-04T13:11:26.360Z,3.46
2023-03-04T13:14:15.269Z,3.38
2023-03-04T13:17:52.139Z,3.44
2023-03-04T13:20:41.402Z,3.70
2023-03-04T13:23:32.123Z,4.03
2023-03-04T13:26:40.577Z,4.40
2023-03-04T13:29:28.585Z,4.69
2023-03-04T13:32:39.010Z,4.74
2023-03-04T13:35:49.165Z,4.66
2023-03-04T13:38:39.016Z,4.68
2023-03-04T13:41:47.116Z,4.57
2023-03-04T13:44:44.640Z,4.51
2023-03-04T13:47:44.061Z,4.41
2023-03-04T13:50:49.631Z,4.18
2023-03-04T13:54:00.011Z,3.90
2023-03-04T13:57:09.733Z,3.66
2023-03-04T13:59:58.356Z,3.40
2023-03-04T14:02:46.523Z,3.10
2023-03-04T14:05:35.855Z,2.88
2023-03-04T14:08:25.954Z,2.69
2023-03-04T14:11:38.942Z,2.53
2023-03-04T14:14:31.461Z,2.38
2023-03-04T14:17:39.173Z,2.22
2023-03-04T14:20:37.489Z,2.09
2023-03-04T14:23:36.067Z,2.05
2023-03-04T14:26:24.514Z,2.14
2023-03-04T14:29:30.838Z,2.19
2023-03-04T14:32:19.546Z,2.14
2023-03-04T14:35:21.459Z,2.07
2023-03-04T14:38:32.326Z,1.93
2023-03-04T14:41:30.317Z,1.82
2023-03-04T14:44:49.121Z,1.69
2023-03-04T14:47:42.048Z,1.48
2023-03-04T14:50:30.461Z,1.32
2023-03-04T14:53:23.070Z,1.09
2023-03-04T14:56:11.139Z,0.96
2023-03-04T14:59:00.252Z,0.86
2023-03-04T15:01:49.812Z,0.76
2023-03-04T15:04:42.055Z,0.76
2023-03-04T15:07:38.633Z,0.76
2023-03-04T15:10:38.551Z,0.76
2023-03-04T15:13:46.298Z,0.73
2023-03-04T15:16:57.075Z,0.72
2023-03-04T15:19:45.453Z,0.70
2023-03-04T15:22:59.195Z,0.68
2023-03-04T15:25:53.096Z,0.62
2023-03-04T15:28:42.340Z,0.53
2023-03-04T15:31:30.482Z,0.43
2023-03-04T15:34:20.748Z,0.32
2023-03-04T15:37:20.492Z,0.23
2023-03-04T15:40:31.412Z,0.11
2023-03-04T15:43:22.235Z,0.01
2023-03-04T15:46:12.542Z,-0.06
2023-03-04T15:49:00.610Z,-0.14
2023-03-04T15:51:50.539Z,-0.19
2023-03-04T15:54:38.928Z,-0.26
2023-03-04T15:57:28.164Z,-0.33
2023-03-04T16:00:17.081Z,-0.37
2023-03-04T16:03:05.491Z,-0.42
2023-03-04T16:05:53.657Z,-0.46
2023-03-04T16:08:43.217Z,-0.50
2023-03-04T16:11:45.613Z,-0.55
2023-03-04T16:14:34.860Z,-0.62
2023-03-04T16:17:38.138Z,-0.68
2023-03-04T16:20:30.306Z,-0.75
2023-03-04T16:23:29.830Z,-0.81
2023-03-04T16:26:38.322Z,-0.87
2023-03-04T16:29:26.766Z,-0.94
2023-03-04T16:32:17.688Z,-0.99
2023-03-04T16:35:07.045Z,-1.04
2023-03-04T16:37:57.021Z,-1.10
2023-03-04T16:40:45.280Z,-1.14
2023-03-04T16:43:33.292Z,-1.19
2023-03-04T16:46:21.513Z,-1.23
2023-03-04T16:49:10.188Z,-1.27
2023-03-04T16:51:58.585Z,-1.31
2023-03-04T16:54:47.299Z,-1.35
2023-03-04T16:57:35.553Z,-1.41
2023-03-04T17:07:52.546Z,-1.55
2023-03-04T17:10:41.418Z,-1.58
2023-03-04T17:13:29.503Z,-1.61
2023-03-04T17:16:18.376Z,-1.64
2023-03-04T17:19:06.993Z,-1.65
2023-03-04T17:22:01.089Z,-1.67
2023-03-04T17:24:49.256Z,-1.71
2023-03-04T17:27:37.670Z,-1.73
2023-03-04T17:30:25.771Z,-1.75
2023-03-04T17:33:13.693Z,-1.78
2023-03-04T17:36:02.036Z,-1.79
2023-03-04T17:38:52.183Z,-1.80
2023-03-04T17:41:40.260Z,-1.78
2023-03-04T17:44:29.108Z,-1.76
2023-03-04T17:47:17.448Z,-1.75
2023-03-04T17:50:07.663Z,-1.72
2023-03-04T17:52:55.729Z,-1.73
2023-03-04T17:56:06.939Z,-1.73
2023-03-04T17:58:55.877Z,-1.76
2023-03-04T18:01:46.142Z,-1.78
2023-03-04T18:04:35.650Z,-1.81
2023-03-04T18:07:23.773Z,-1.84
2023-03-04T18:10:12.159Z,-1.87
2023-03-04T18:13:00.607Z,-1.88
2023-03-04T18:15:49.533Z,-1.87
2023-03-04T18:18:38.593Z,-1.88
2023-03-04T18:21:29.881Z,-1.88
2023-03-04T18:24:18.562Z,-1.87
2023-03-04T18:27:07.471Z,-1.87
2023-03-04T18:29:58.861Z,-1.86
2023-03-04T18:32:52.258Z,-1.88
2023-03-04T18:35:40.819Z,-1.89
2023-03-04T18:38:30.233Z,-1.87
2023-03-04T18:41:18.639Z,-1.86
2023-03-04T18:44:09.936Z,-1.83
2023-03-04T18:46:58.452Z,-1.83
2023-03-04T18:49:47.660Z,-1.83
2023-03-04T18:52:36.347Z,-1.83
2023-03-04T18:55:25.127Z,-1.83
2023-03-04T18:58:13.757Z,-1.85
2023-03-04T19:01:05.376Z,-1.86
2023-03-04T19:03:54.628Z,-1.88
2023-03-04T19:06:42.969Z,-1.91
2023-03-04T19:09:31.437Z,-1.93
2023-03-04T19:12:22.609Z,-1.97
2023-03-04T19:15:12.445Z,-2.00
2023-03-04T19:18:00.820Z,-2.03
2023-03-04T19:20:48.849Z,-2.07
2023-03-04T19:23:36.957Z,-2.11
2023-03-04T19:26:25.056Z,-2.16
2023-03-04T19:29:15.322Z,-2.20
2023-03-04T19:32:05.399Z,-2.23
2023-03-04T19:34:53.928Z,-2.24
2023-03-04T19:37:42.080Z,-2.26
2023-03-04T19:40:31.359Z,-2.29
2023-03-04T19:43:20.106Z,-2.32
2023-03-04T19:46:10.304Z,-2.33
2023-03-04T19:48:58.632Z,-2.35
2023-03-04T19:51:46.857Z,-2.37
2023-03-04T19:54:34.911Z,-2.39
2023-03-04T19:57:23.094Z,-2.41
2023-03-04T20:00:13.055Z,-2.40
2023-03-04T20:03:01.940Z,-2.40
2023-03-04T20:05:50.356Z,-2.41
2023-03-04T20:08:38.645Z,-2.43
2023-03-04T20:11:29.288Z,-2.43
2023-03-04T20:14:18.026Z,-2.44
2023-03-04T20:17:07.311Z,-2.44
2023-03-04T20:19:55.361Z,-2.45
2023-03-04T20:22:43.386Z,-2.46
2023-03-04T20:25:32.225Z,-2.47
2023-03-04T20:28:20.540Z,-2.48
2023-03-04T20:31:15.981Z,-2.49
2023-03-04T20:34:07.193Z,-2.50
2023-03-04T20:36:55.816Z,-2.52
2023-03-04T20:39:44.273Z,-2.54
2023-03-04T20:42:34.131Z,-2.57
2023-03-04T20:45:24.800Z,-2.58
2023-03-04T20:48:13.213Z,-2.58
2023-03-04T20:51:01.807Z,-2.59
2023-03-04T20:53:50.831Z,-2.60
2023-03-04T20:56:39.766Z,-2.61
2023-03-04T20:59:28.311Z,-2.61
2023-03-04T21:02:19.908Z,-2.61
2023-03-04T21:05:08.416Z,-2.60
2023-03-04T21:07:56.821Z,-2.59
2023-03-04T21:10:49.443Z,-2.59
2023-03-04T21:13:37.459Z,-2.58
2023-03-04T21:16:31.689Z,-2.58
2023-03-04T21:19:27.657Z,-2.56
2023-03-04T21:22:19.387Z,-2.55
2023-03-04T21:25:09.053Z,-2.53
2023-03-04T21:27:57.257Z,-2.51
2023-03-04T21:30:45.421Z,-2.48
2023-03-04T21:33:36.614Z,-2.46
2023-03-04T21:36:25.081Z,-2.43
2023-03-04T21:39:20.270Z,-2.38
2023-03-04T21:42:08.538Z,-2.33
2023-03-04T21:44:56.595Z,-2.29
2023-03-04T21:47:45.236Z,-2.23
2023-03-04T21:50:33.434Z,-2.20
2023-03-04T21:53:21.871Z,-2.16
2023-03-04T21:56:12.614Z,-2.12
2023-03-04T21:59:02.332Z,-2.07
2023-03-04T22:01:50.657Z,-2.05
2023-03-04T22:04:40.787Z,-2.03
2023-03-04T22:07:29.204Z,-2.01
2023-03-04T22:10:17.981Z,-1.99
2023-03-04T22:13:11.232Z,-1.96
2023-03-04T22:16:00.510Z,-1.95
2023-03-04T22:18:49.205Z,-1.92
2023-03-04T22:21:37.532Z,-1.90
2023-03-04T22:24:26.533Z,-1.86
2023-03-04T22:27:15.016Z,-1.83
2023-03-04T22:30:03.435Z,-1.80
2023-03-04T22:32:51.534Z,-1.77
2023-03-04T22:35:40.716Z,-1.77
2023-03-04T22:38:28.972Z,-1.77
2023-03-04T22:41:20.055Z,-1.76
2023-03-04T22:44:08.326Z,-1.75
2023-03-04T22:46:56.379Z,-1.73
2023-03-04T22:49:47.608Z,-1.70
2023-03-04T22:52:36.076Z,-1.66
2023-03-04T22:55:24.318Z,-1.65
2023-03-04T22:58:12.423Z,-1.66
2023-03-04T23:01:01.224Z,-1.67
2023-03-04T23:03:49.744Z,-1.68
2023-03-04T23:06:38.256Z,-1.67
2023-03-04T23:09:26.659Z,-1.65
2023-03-04T23:12:14.607Z,-1.63
2023-03-04T23:15:02.654Z,-1.62
2023-03-04T23:17:51.152Z,-1.63
2023-03-04T23:20:42.452Z,-1.64
2023-03-04T23:23:30.293Z,-1.67
2023-03-04T23:26:29.520Z,-1.71
2023-03-04T23:29:18.076Z,-1.75
2023-03-04T23:32:06.642Z,-1.81
2023-03-04T23:34:56.425Z,-1.87
2023-03-04T23:37:44.743Z,-1.92
2023-03-04T23:40:33.190Z,-1.98
2023-03-04T23:43:21.536Z,-2.04
2023-03-04T23:46:11.799Z,-2.10
2023-03-04T23:49:00.253Z,-2.16
2023-03-04T23:51:48.382Z,-2.22
2023-03-04T23:54:36.662Z,-2.28
2023-03-04T23:57:24.987Z,-2.33
